createdAt,value
2022-11-13T00:01:25.451Z,8.37
2022-11-13T00:04:10.953Z,8.38
2022-11-13T00:06:59.529Z,8.43
2022-11-13T00:09:45.092Z,8.64
2022-11-13T00:12:31.457Z,8.56
2022-11-13T00:15:17.860Z,8.50
2022-11-13T00:18:04.208Z,8.25
2022-11-13T00:20:49.441Z,8.26
2022-11-13T00:23:36.000Z,8.23
2022-11-13T00:26:27.821Z,8.29
2022-11-13T00:29:13.034Z,8.19
2022-11-13T00:31:58.144Z,8.20
2022-11-13T00:34:48.124Z,8.08
2022-11-13T00:37:34.475Z,7.98
2022-11-13T00:40:19.890Z,8.19
2022-11-13T00:43:05.234Z,8.24
2022-11-13T00:45:50.707Z,8.24
2022-11-13T00:48:36.928Z,8.23
2022-11-13T00:51:22.594Z,8.29
2022-11-13T00:54:07.722Z,8.10
2022-11-13T00:56:52.974Z,8.08
2022-11-13T00:59:40.595Z,8.19
2022-11-13T01:02:26.101Z,8.04
2022-11-13T01:05:11.454Z,8.03
2022-11-13T01:07:57.021Z,8.16
2022-11-13T01:10:53.774Z,7.98
2022-11-13T01:13:41.629Z,7.92
2022-11-13T01:16:27.945Z,8.02
2022-11-13T01:19:14.381Z,7.98
2022-11-13T01:21:59.779Z,7.91
2022-11-13T01:24:44.926Z,8.00
2022-11-13T01:27:30.594Z,8.00
2022-11-13T01:30:16.589Z,8.01
2022-11-13T01:33:03.564Z,8.08
2022-11-13T01:35:49.092Z,8.17
2022-11-13T01:38:36.998Z,8.09
2022-11-13T01:41:32.741Z,8.28
2022-11-13T01:44:19.370Z,8.11
2022-11-13T01:47:07.246Z,7.99
2022-11-13T01:49:57.632Z,7.87
2022-11-13T01:52:43.137Z,7.92
2022-11-13T01:55:29.214Z,7.85
2022-11-13T01:58:14.702Z,7.89
2022-11-13T02:01:00.059Z,7.94
2022-11-13T02:03:45.805Z,8.19
2022-11-13T02:06:49.391Z,8.04
2022-11-13T02:09:43.329Z,7.96
2022-11-13T02:12:33.248Z,7.95
2022-11-13T02:15:40.936Z,7.91
2022-11-13T02:18:29.815Z,7.94
2022-11-13T02:21:42.512Z,7.95
2022-11-13T02:24:32.636Z,7.70
2022-11-13T02:27:32.524Z,7.62
2022-11-13T02:30:26.903Z,7.72
2022-11-13T02:33:22.719Z,7.45
2022-11-13T02:36:11.918Z,7.37
2022-11-13T02:39:02.114Z,7.43
2022-11-13T02:41:47.354Z,7.73
2022-11-13T02:44:32.903Z,7.91
2022-11-13T02:47:18.303Z,7.72
2022-11-13T02:50:04.643Z,7.82
2022-11-13T02:52:50.345Z,7.49
2022-11-13T02:55:35.900Z,7.37
2022-11-13T02:58:22.249Z,7.56
2022-11-13T03:01:07.583Z,7.64
2022-11-13T03:04:00.015Z,7.65
2022-11-13T03:06:45.304Z,7.45
2022-11-13T03:09:31.498Z,7.56
2022-11-13T03:12:16.726Z,7.39
2022-11-13T03:15:02.422Z,7.57
2022-11-13T03:17:48.002Z,7.52
2022-11-13T03:20:35.657Z,7.48
2022-11-13T03:23:21.116Z,7.51
2022-11-13T03:26:11.537Z,7.38
2022-11-13T03:28:57.363Z,7.32
2022-11-13T03:31:44.262Z,7.23
2022-11-13T03:34:29.397Z,7.26
2022-11-13T03:37:14.799Z,7.16
2022-11-13T03:40:00.115Z,7.25
2022-11-13T03:42:45.827Z,7.14
2022-11-13T03:45:33.099Z,7.29
2022-11-13T03:48:18.294Z,7.12
2022-11-13T03:51:04.029Z,7.25
2022-11-13T03:53:49.134Z,7.30
2022-11-13T03:56:34.130Z,6.98
2022-11-13T03:59:19.136Z,6.94
2022-11-13T04:02:05.529Z,6.83
2022-11-13T04:04:51.138Z,6.84
2022-11-13T04:07:36.755Z,6.92
2022-11-13T04:10:24.958Z,6.90
2022-11-13T04:13:10.324Z,7.01
2022-11-13T04:15:55.822Z,7.12
2022-11-13T04:18:40.980Z,6.96
2022-11-13T04:21:27.711Z,6.99
2022-11-13T04:24:13.641Z,7.19
2022-11-13T04:26:58.774Z,7.27
2022-11-13T04:29:43.845Z,7.25
2022-11-13T04:32:30.546Z,7.23
2022-11-13T04:35:18.230Z,7.37
2022-11-13T04:38:03.572Z,7.23
2022-11-13T04:40:51.471Z,7.20
2022-11-13T04:43:37.440Z,7.19
2022-11-13T04:46:22.807Z,7.21
2022-11-13T04:49:09.053Z,7.29
2022-11-13T04:51:54.183Z,7.25
2022-11-13T04:54:39.426Z,7.30
2022-11-13T04:57:24.907Z,7.06
2022-11-13T05:00:14.719Z,7.12
2022-11-13T05:03:00.888Z,7.17
2022-11-13T05:05:46.567Z,7.18
2022-11-13T05:08:31.934Z,7.09
2022-11-13T05:11:17.209Z,6.90
2022-11-13T05:14:03.578Z,6.84
2022-11-13T05:16:50.110Z,6.90
2022-11-13T05:19:35.837Z,6.95
2022-11-13T05:22:20.910Z,7.01
2022-11-13T05:25:06.931Z,6.72
2022-11-13T05:27:52.045Z,6.87
2022-11-13T05:30:37.509Z,6.61
2022-11-13T05:33:22.719Z,6.74
2022-11-13T05:36:12.403Z,7.04
2022-11-13T05:38:58.774Z,7.07
2022-11-13T05:41:46.188Z,7.09
2022-11-13T05:44:31.497Z,7.03
2022-11-13T05:47:17.218Z,6.83
2022-11-13T05:50:02.854Z,6.88
2022-11-13T05:52:48.960Z,6.79
2022-11-13T05:55:34.454Z,6.71
2022-11-13T05:58:19.721Z,6.71
2022-11-13T06:01:08.129Z,6.70
2022-11-13T06:03:55.349Z,6.48
2022-11-13T06:06:42.401Z,6.82
2022-11-13T06:09:27.888Z,6.71
2022-11-13T06:12:13.207Z,6.72
2022-11-13T06:14:58.520Z,6.77
2022-11-13T06:17:48.739Z,6.71
2022-11-13T06:20:37.582Z,6.78
2022-11-13T06:23:22.551Z,6.88
2022-11-13T06:26:14.845Z,6.82
2022-11-13T06:29:01.289Z,6.82
2022-11-13T06:31:46.722Z,7.02
2022-11-13T06:34:38.162Z,6.78
2022-11-13T06:37:23.183Z,6.64
2022-11-13T06:40:09.125Z,6.64
2022-11-13T06:42:57.523Z,6.60
2022-11-13T06:45:42.706Z,6.58
2022-11-13T06:48:28.363Z,6.66
2022-11-13T06:51:16.786Z,6.62
2022-11-13T06:54:02.133Z,6.98
2022-11-13T06:56:48.122Z,6.70
2022-11-13T06:59:33.165Z,6.53
2022-11-13T07:02:19.169Z,6.53
2022-11-13T07:05:05.362Z,6.41
2022-11-13T07:07:52.570Z,6.48
2022-11-13T07:10:38.315Z,6.53
2022-11-13T07:13:25.535Z,6.51
2022-11-13T07:16:19.123Z,6.42
2022-11-13T07:19:04.736Z,6.48
2022-11-13T07:21:50.261Z,6.46
2022-11-13T07:24:35.421Z,6.60
2022-11-13T07:27:20.716Z,6.74
2022-11-13T07:30:06.815Z,6.78
2022-11-13T07:32:52.366Z,6.51
2022-11-13T07:35:37.374Z,6.61
2022-11-13T07:38:23.597Z,6.95
2022-11-13T07:41:08.894Z,6.79
2022-11-13T07:43:54.462Z,6.95
2022-11-13T07:46:39.544Z,6.79
2022-11-13T07:49:24.780Z,6.50
2022-11-13T07:52:10.079Z,6.57
2022-11-13T07:54:55.696Z,6.55
2022-11-13T07:57:41.107Z,6.57
2022-11-13T08:00:28.462Z,6.93
2022-11-13T08:03:15.989Z,6.64
2022-11-13T08:06:07.843Z,6.75
2022-11-13T08:08:53.762Z,6.99
2022-11-13T08:11:38.870Z,6.96
2022-11-13T08:14:24.349Z,7.12
2022-11-13T08:17:10.792Z,6.85
2022-11-13T08:19:56.644Z,7.06
2022-11-13T08:22:42.051Z,7.07
2022-11-13T08:25:28.188Z,6.71
2022-11-13T08:28:13.689Z,6.78
2022-11-13T08:31:00.767Z,6.78
2022-11-13T08:33:45.873Z,6.63
2022-11-13T08:36:31.442Z,6.67
2022-11-13T08:39:17.245Z,6.67
2022-11-13T08:42:04.242Z,6.87
2022-11-13T08:44:49.516Z,7.08
2022-11-13T08:47:34.522Z,7.04
2022-11-13T08:50:19.736Z,6.95
2022-11-13T08:53:05.848Z,6.89
2022-11-13T08:55:51.050Z,6.90
2022-11-13T08:58:36.340Z,6.95
2022-11-13T09:01:22.917Z,7.33
2022-11-13T09:04:10.925Z,7.25
2022-11-13T09:06:56.921Z,7.40
2022-11-13T09:09:42.410Z,7.32
2022-11-13T09:12:27.601Z,7.39
2022-11-13T09:15:13.035Z,7.42
2022-11-13T09:18:00.340Z,7.45
2022-11-13T09:20:45.974Z,7.38
2022-11-13T09:23:31.654Z,7.35
2022-11-13T09:26:18.348Z,7.38
2022-11-13T09:29:03.936Z,7.27
2022-11-13T09:31:50.153Z,7.40
2022-11-13T09:34:35.145Z,7.22
2022-11-13T09:37:21.403Z,7.44
2022-11-13T09:40:11.678Z,7.47
2022-11-13T09:42:57.325Z,7.12
2022-11-13T09:45:44.044Z,7.07
2022-11-13T09:48:42.262Z,7.05
2022-11-13T09:51:38.577Z,7.22
2022-11-13T09:54:24.044Z,7.18
2022-11-13T09:57:29.919Z,7.23
2022-11-13T10:00:22.338Z,7.23
2022-11-13T10:03:54.016Z,7.70
2022-11-13T10:06:39.131Z,7.70
2022-11-13T10:09:48.205Z,7.50
2022-11-13T10:12:33.998Z,7.43
2022-11-13T10:15:28.843Z,7.20
2022-11-13T10:18:21.295Z,7.45
2022-11-13T10:21:26.067Z,7.93
2022-11-13T10:24:18.735Z,7.99
2022-11-13T10:27:09.953Z,8.20
2022-11-13T10:29:56.104Z,8.21
2022-11-13T10:32:42.178Z,8.11
2022-11-13T10:35:47.113Z,8.12
2022-11-13T10:38:38.805Z,8.37
2022-11-13T10:41:24.470Z,8.24
2022-11-13T10:44:20.185Z,8.40
2022-11-13T10:47:36.068Z,8.40
2022-11-13T10:50:30.242Z,8.59
2022-11-13T10:53:17.675Z,8.59
2022-11-13T10:56:13.550Z,8.86
2022-11-13T10:59:14.912Z,8.71
2022-11-13T11:02:16.112Z,8.87
2022-11-13T11:05:20.277Z,8.92
2022-11-13T11:08:10.135Z,8.95
2022-11-13T11:11:19.863Z,8.77
2022-11-13T11:14:22.548Z,8.95
2022-11-13T11:17:12.739Z,9.15
2022-11-13T11:20:07.260Z,9.03
2022-11-13T11:23:02.248Z,9.34
2022-11-13T11:25:55.513Z,9.29
2022-11-13T11:28:52.429Z,9.58
2022-11-13T11:31:56.429Z,9.41
2022-11-13T11:34:54.952Z,9.45
2022-11-13T11:38:25.527Z,9.59
2022-11-13T11:41:17.169Z,9.47
2022-11-13T11:44:13.812Z,9.21
2022-11-13T11:46:58.855Z,9.44
2022-11-13T11:49:45.405Z,9.39
2022-11-13T11:52:54.534Z,9.47
2022-11-13T11:56:00.096Z,9.69
2022-11-13T11:59:16.096Z,9.81
2022-11-13T12:02:31.148Z,9.89
2022-11-13T12:05:20.333Z,9.83
2022-11-13T12:08:22.939Z,9.85
2022-11-13T12:11:28.508Z,10.01
2022-11-13T12:14:33.223Z,9.93
2022-11-13T12:17:39.636Z,9.72
2022-11-13T12:21:10.332Z,9.78
2022-11-13T12:24:14.021Z,9.80
2022-11-13T12:27:41.989Z,9.88
2022-11-13T12:30:41.311Z,9.39
2022-11-13T12:34:00.905Z,9.69
2022-11-13T12:36:47.683Z,9.88
2022-11-13T12:39:52.303Z,9.98
2022-11-13T12:42:49.750Z,10.07
2022-11-13T12:45:50.431Z,9.92
2022-11-13T12:48:38.830Z,10.16
2022-11-13T12:51:24.345Z,10.18
2022-11-13T12:54:10.865Z,10.10
2022-11-13T12:57:14.455Z,10.05
2022-11-13T13:00:21.528Z,10.15
2022-11-13T13:03:13.183Z,10.40
2022-11-13T13:06:13.358Z,10.51
2022-11-13T13:09:27.354Z,10.30
2022-11-13T13:12:50.261Z,10.44
2022-11-13T13:15:38.591Z,10.53
2022-11-13T13:18:28.805Z,10.63
2022-11-13T13:21:19.613Z,10.75
2022-11-13T13:24:27.246Z,11.04
2022-11-13T13:27:27.314Z,11.03
2022-11-13T13:30:22.577Z,10.93
2022-11-13T13:33:31.303Z,11.02
2022-11-13T13:36:23.871Z,11.12
2022-11-13T13:39:25.763Z,11.06
2022-11-13T13:42:36.338Z,11.07
2022-11-13T13:45:27.434Z,11.37
2022-11-13T13:48:19.333Z,11.32
2022-11-13T13:51:19.725Z,11.30
2022-11-13T13:54:08.206Z,11.46
2022-11-13T13:56:56.109Z,11.51
2022-11-13T13:59:44.965Z,11.79
2022-11-13T14:02:31.226Z,11.87
2022-11-13T14:05:29.786Z,12.01
2022-11-13T14:08:20.733Z,12.09
2022-11-13T14:11:34.483Z,12.12
2022-11-13T14:14:22.515Z,12.21
2022-11-13T14:17:10.031Z,12.37
2022-11-13T14:20:00.787Z,12.36
2022-11-13T14:22:53.279Z,12.60
2022-11-13T14:25:43.810Z,12.67
2022-11-13T14:28:31.975Z,12.83
2022-11-13T14:31:17.683Z,12.60
2022-11-13T14:34:10.612Z,12.70
2022-11-13T14:36:56.168Z,12.75
2022-11-13T14:39:47.066Z,12.78
2022-11-13T14:42:37.724Z,12.74
2022-11-13T14:45:32.045Z,12.37
2022-11-13T14:48:22.758Z,12.08
2022-11-13T14:51:28.875Z,12.03
2022-11-13T14:55:08.011Z,11.79
2022-11-13T14:57:49.711Z,11.85
2022-11-13T15:00:37.896Z,11.70
2022-11-13T15:03:24.663Z,11.63
2022-11-13T15:06:19.372Z,11.47
2022-11-13T15:09:16.495Z,11.72
2022-11-13T15:12:05.759Z,11.48
2022-11-13T15:14:51.459Z,11.43
2022-11-13T15:17:36.829Z,11.42
2022-11-13T15:20:27.571Z,11.38
2022-11-13T15:23:15.548Z,11.39
2022-11-13T15:26:00.739Z,11.28
2022-11-13T15:28:46.082Z,11.18
2022-11-13T15:31:42.524Z,11.15
2022-11-13T15:34:29.084Z,11.17
2022-11-13T15:37:16.541Z,11.22
2022-11-13T15:40:02.281Z,11.12
2022-11-13T15:42:48.094Z,10.99
2022-11-13T15:45:34.222Z,10.98
2022-11-13T15:48:19.754Z,11.22
2022-11-13T15:51:05.402Z,11.01
2022-11-13T15:54:13.762Z,10.87
2022-11-13T15:56:58.856Z,10.77
2022-11-13T15:59:43.964Z,10.79
2022-11-13T16:02:31.645Z,10.64
2022-11-13T16:05:17.316Z,10.91
2022-11-13T16:08:03.527Z,10.77
2022-11-13T16:10:48.874Z,10.57
2022-11-13T16:13:34.030Z,10.47
2022-11-13T16:16:23.533Z,10.74
2022-11-13T16:19:15.012Z,10.62
2022-11-13T16:22:00.167Z,10.29
2022-11-13T16:24:48.715Z,10.12
2022-11-13T16:27:34.455Z,10.08
2022-11-13T16:30:23.295Z,10.29
2022-11-13T16:33:12.771Z,10.12
2022-11-13T16:35:59.372Z,10.03
2022-11-13T16:38:45.158Z,10.12
2022-11-13T16:41:31.851Z,10.15
2022-11-13T16:44:18.374Z,10.01
2022-11-13T16:47:05.520Z,9.92
2022-11-13T16:49:51.216Z,9.91
2022-11-13T16:52:36.659Z,9.93
2022-11-13T16:55:21.815Z,10.12
2022-11-13T16:58:07.280Z,9.97
2022-11-13T17:00:59.791Z,10.01
2022-11-13T17:03:45.948Z,10.08
2022-11-13T17:06:34.465Z,9.97
2022-11-13T17:09:19.987Z,9.65
2022-11-13T17:12:05.482Z,9.66
2022-11-13T17:14:50.446Z,9.75
2022-11-13T17:17:35.798Z,10.07
2022-11-13T17:20:22.277Z,10.10
2022-11-13T17:23:11.246Z,9.98
2022-11-13T17:25:56.390Z,10.02
2022-11-13T17:28:41.679Z,10.01
2022-11-13T17:31:27.680Z,10.00
2022-11-13T17:34:13.058Z,9.76
2022-11-13T17:36:58.464Z,9.76
2022-11-13T17:39:43.641Z,9.73
2022-11-13T17:42:30.890Z,9.67
2022-11-13T17:45:16.138Z,9.72
2022-11-13T17:48:02.199Z,9.77
2022-11-13T17:50:57.520Z,10.01
2022-11-13T17:53:42.861Z,9.83
2022-11-13T17:56:28.415Z,9.90
2022-11-13T17:59:14.070Z,10.09
2022-11-13T18:02:00.482Z,10.03
2022-11-13T18:04:46.144Z,10.11
2022-11-13T18:07:34.817Z,9.88
2022-11-13T18:10:19.906Z,9.71
2022-11-13T18:13:05.869Z,9.61
2022-11-13T18:15:51.339Z,9.77
2022-11-13T18:18:37.331Z,9.70
2022-11-13T18:21:25.357Z,9.71
2022-11-13T18:24:16.329Z,9.74
2022-11-13T18:27:01.956Z,9.72
2022-11-13T18:29:47.400Z,9.65
2022-11-13T18:32:32.732Z,9.66
2022-11-13T18:35:17.908Z,9.58
2022-11-13T18:38:03.327Z,9.67
2022-11-13T18:40:48.478Z,9.62
2022-11-13T18:43:34.093Z,9.61
2022-11-13T18:46:23.491Z,9.66
2022-11-13T18:49:09.324Z,9.57
2022-11-13T18:51:54.661Z,9.49
2022-11-13T18:54:40.250Z,9.57
2022-11-13T18:57:26.124Z,9.58
2022-11-13T19:00:11.757Z,9.63
2022-11-13T19:02:58.216Z,9.47
2022-11-13T19:05:47.378Z,9.61
2022-11-13T19:08:38.210Z,9.49
2022-11-13T19:11:28.060Z,9.48
2022-11-13T19:14:15.528Z,9.36
2022-11-13T19:17:00.691Z,9.28
2022-11-13T19:19:46.145Z,9.28
2022-11-13T19:22:32.267Z,9.35
2022-11-13T19:25:17.606Z,9.35
2022-11-13T19:28:07.852Z,9.25
2022-11-13T19:30:56.391Z,9.19
2022-11-13T19:33:41.821Z,9.39
2022-11-13T19:36:28.943Z,9.32
2022-11-13T19:39:14.271Z,9.42
2022-11-13T19:41:59.893Z,9.28
2022-11-13T19:44:45.519Z,9.18
2022-11-13T19:47:31.152Z,9.24
2022-11-13T19:50:16.939Z,9.19
2022-11-13T19:53:02.196Z,9.10
2022-11-13T19:55:55.302Z,9.16
2022-11-13T19:58:44.335Z,9.11
2022-11-13T20:01:31.742Z,8.88
2022-11-13T20:04:17.840Z,9.64
2022-11-13T20:07:03.236Z,9.57
2022-11-13T20:09:48.389Z,9.25
2022-11-13T20:12:35.335Z,8.97
2022-11-13T20:15:20.541Z,8.89
2022-11-13T20:18:05.898Z,8.64
2022-11-13T20:20:54.686Z,8.62
2022-11-13T20:23:40.885Z,8.43
2022-11-13T20:26:27.381Z,8.27
2022-11-13T20:29:15.903Z,8.22
2022-11-13T20:32:04.650Z,8.27
2022-11-13T20:34:49.978Z,8.44
2022-11-13T20:37:35.720Z,8.52
2022-11-13T20:40:21.845Z,8.60
2022-11-13T20:43:07.111Z,8.71
2022-11-13T20:46:11.922Z,8.71
2022-11-13T20:48:57.569Z,8.61
2022-11-13T20:51:45.236Z,8.65
2022-11-13T20:54:33.818Z,8.69
2022-11-13T20:57:21.473Z,8.62
2022-11-13T21:00:07.370Z,8.53
2022-11-13T21:02:52.930Z,8.52
2022-11-13T21:05:38.361Z,8.49
2022-11-13T21:08:23.733Z,8.19
2022-11-13T21:11:19.632Z,8.45
2022-11-13T21:14:05.550Z,8.43
2022-11-13T21:16:51.692Z,8.27
2022-11-13T21:19:37.145Z,8.14
2022-11-13T21:22:22.829Z,8.02
2022-11-13T21:25:08.228Z,8.31
2022-11-13T21:27:55.008Z,7.97
2022-11-13T21:30:40.288Z,8.11
2022-11-13T21:33:26.033Z,8.10
2022-11-13T21:36:16.756Z,8.32
2022-11-13T21:39:02.054Z,8.04
2022-11-13T21:41:47.430Z,7.86
2022-11-13T21:44:32.465Z,7.46
2022-11-13T21:47:17.615Z,7.27
2022-11-13T21:50:08.819Z,7.08
2022-11-13T21:52:54.217Z,7.38
2022-11-13T21:55:39.542Z,6.80
2022-11-13T21:58:33.136Z,6.69
2022-11-13T22:01:18.920Z,6.46
2022-11-13T22:04:04.460Z,6.07
2022-11-13T22:06:51.237Z,5.93
2022-11-13T22:09:38.125Z,5.74
2022-11-13T22:12:24.220Z,5.90
2022-11-13T22:15:10.715Z,5.71
2022-11-13T22:17:56.011Z,5.88
2022-11-13T22:20:41.515Z,6.06
2022-11-13T22:23:27.918Z,6.09
2022-11-13T22:26:15.044Z,6.12
2022-11-13T22:29:00.649Z,6.05
2022-11-13T22:31:47.994Z,5.99
2022-11-13T22:34:33.539Z,6.28
2022-11-13T22:37:18.798Z,6.33
2022-11-13T22:40:04.338Z,6.23
2022-11-13T22:42:49.647Z,6.49
2022-11-13T22:45:34.848Z,6.45
2022-11-13T22:48:20.053Z,6.54
2022-11-13T22:51:14.630Z,6.57
2022-11-13T22:54:04.201Z,6.64
2022-11-13T22:56:49.820Z,6.71
2022-11-13T22:59:35.199Z,6.71
2022-11-13T23:02:20.339Z,6.74
2022-11-13T23:05:06.006Z,6.72
2022-11-13T23:07:53.016Z,6.72
2022-11-13T23:10:38.467Z,6.78
2022-11-13T23:13:24.956Z,6.86
2022-11-13T23:16:14.124Z,6.85
2022-11-13T23:19:00.782Z,6.83
2022-11-13T23:21:46.518Z,6.93
2022-11-13T23:24:33.215Z,7.09
2022-11-13T23:27:18.938Z,7.08
2022-11-13T23:30:04.585Z,7.11
2022-11-13T23:32:50.153Z,6.89
2022-11-13T23:35:35.683Z,7.10
2022-11-13T23:38:21.605Z,7.19
2022-11-13T23:41:07.236Z,7.29
2022-11-13T23:44:09.541Z,7.15
2022-11-13T23:46:55.042Z,7.14
2022-11-13T23:49:40.612Z,7.33
2022-11-13T23:52:26.326Z,7.06
2022-11-13T23:55:11.635Z,7.19
2022-11-13T23:58:02.124Z,7.06
